Time;durP1;ratioP1;P1;durP2;ratioP2;P2;SDS_P1;SDS_P2;PMS_P1;PMS_P2;Temp;Humidity;BMP_temperature;BMP_pressure;BME280_temperature;BME280_humidity;BME280_pressure;Samples;Min_cycle;Max_cycle;Signal;HPM_P1;HPM_P2
2022/01/17 00:00:21;;;;;;;22.50;2.00;;;4.60;99.90;;;;;;5067288;28;20045;-46
2022/01/17 00:02:49;;;;;;;22.55;1.92;;;4.30;99.90;;;;;;5068607;28;20037;-46
2022/01/17 00:05:16;;;;;;;27.10;2.38;;;4.40;99.90;;;;;;5068754;28;20132;-47
2022/01/17 00:07:42;;;;;;;22.67;2.50;;;4.70;99.90;;;;;;5068881;28;20051;-47
2022/01/17 00:10:09;;;;;;;22.85;2.65;;;4.40;99.90;;;;;;5068564;28;20055;-45
2022/01/17 00:12:38;;;;;;;23.25;2.05;;;4.00;99.90;;;;;;5068745;28;20106;-47
2022/01/17 00:15:13;;;;;;;26.10;3.28;;;5.20;99.90;;;;;;5081231;28;20054;-46
2022/01/17 00:17:41;;;;;;;29.90;2.20;;;4.00;99.90;;;;;;5090475;28;20101;-46
2022/01/17 00:20:14;;;;;;;15.93;1.45;;;4.20;99.90;;;;;;5080794;28;20045;-48
2022/01/17 00:22:40;;;;;;;17.13;1.52;;;3.90;99.90;;;;;;5069831;28;20048;-47
2022/01/17 00:25:09;;;;;;;20.17;2.20;;;3.90;99.90;;;;;;5070139;28;20033;-49
2022/01/17 00:27:35;;;;;;;21.15;1.88;;;4.10;99.90;;;;;;5070056;28;20552;-45
2022/01/17 00:30:03;;;;;;;24.33;2.65;;;4.00;99.90;;;;;;5069779;28;20036;-46
2022/01/17 00:32:30;;;;;;;26.38;1.83;;;3.80;99.90;;;;;;5069694;28;20041;-46
2022/01/17 00:34:56;;;;;;;22.90;1.65;;;3.50;99.90;;;;;;5069896;28;20041;-45
2022/01/17 00:37:22;;;;;;;23.08;1.63;;;3.70;99.90;;;;;;5071918;28;20055;-47
2022/01/17 00:39:48;;;;;;;20.92;1.63;;;3.70;99.90;;;;;;5089898;28;20040;-46
2022/01/17 00:42:14;;;;;;;26.27;2.78;;;3.70;99.90;;;;;;5090116;28;20106;-46
2022/01/17 00:44:39;;;;;;;18.42;1.65;;;3.70;99.90;;;;;;5090298;28;20123;-47
2022/01/17 00:47:06;;;;;;;28.52;2.75;;;3.70;99.90;;;;;;5089828;28;20091;-45
2022/01/17 00:49:31;;;;;;;28.83;2.03;;;3.70;99.90;;;;;;5090312;28;20043;-46
2022/01/17 00:51:57;;;;;;;24.75;1.60;;;3.70;99.90;;;;;;5092568;28;20040;-45
2022/01/17 00:54:23;;;;;;;28.88;2.58;;;3.90;99.90;;;;;;5075450;28;20048;-45
2022/01/17 00:56:48;;;;;;;29.60;3.05;;;3.90;99.90;;;;;;5092611;28;20044;-47
2022/01/17 00:59:14;;;;;;;27.00;1.90;;;4.00;99.90;;;;;;5094154;28;20154;-46
2022/01/17 01:01:40;;;;;;;38.58;4.65;;;4.10;99.90;;;;;;5093503;28;20055;-45
2022/01/17 01:04:05;;;;;;;23.65;3.60;;;4.00;99.90;;;;;;5093350;28;20492;-47
2022/01/17 01:06:31;;;;;;;21.40;2.10;;;4.40;99.90;;;;;;5093621;28;20056;-45
2022/01/17 01:08:58;;;;;;;19.58;3.00;;;4.10;99.90;;;;;;5093416;28;20063;-48
2022/01/17 01:11:24;;;;;;;19.65;2.30;;;4.20;99.90;;;;;;5093371;28;20056;-46
2022/01/17 01:13:49;;;;;;;20.00;2.13;;;4.50;99.90;;;;;;5093527;28;20047;-45
2022/01/17 01:19:08;;;;;;;27.63;2.80;;;4.30;99.90;;;;;;5093399;28;20044;-46
2022/01/17 01:30:00;;;;;;;21.83;2.17;;;4.40;99.90;;;;;;5093349;28;20131;-45
2022/01/17 01:32:35;;;;;;;21.08;2.13;;;4.30;99.90;;;;;;5092114;28;20063;-46
2022/01/17 01:35:01;;;;;;;20.58;1.30;;;4.40;99.90;;;;;;5093146;28;20048;-46
2022/01/17 01:37:27;;;;;;;25.75;2.72;;;4.30;99.90;;;;;;5090980;28;20103;-45
2022/01/17 01:39:54;;;;;;;18.05;1.67;;;5.00;99.90;;;;;;5092746;28;20550;-47
2022/01/17 01:42:21;;;;;;;22.35;1.90;;;4.40;99.90;;;;;;5092948;28;20505;-45
2022/01/17 01:44:50;;;;;;;19.67;1.70;;;4.90;99.90;;;;;;5093235;28;20062;-47
2022/01/17 01:47:16;;;;;;;24.35;2.60;;;4.30;99.90;;;;;;5093041;28;20062;-45
2022/01/17 01:49:42;;;;;;;20.88;2.38;;;4.40;99.90;;;;;;5093017;28;20036;-46
2022/01/17 01:52:07;;;;;;;16.95;1.45;;;4.40;99.90;;;;;;5092470;28;20043;-45
2022/01/17 01:54:33;;;;;;;23.75;2.20;;;4.70;99.90;;;;;;5093437;28;20465;-45
2022/01/17 01:56:59;;;;;;;24.50;2.15;;;4.40;99.90;;;;;;5092387;28;20040;-46
2022/01/17 01:59:25;;;;;;;31.90;3.63;;;4.40;99.90;;;;;;5093114;28;20124;-45
2022/01/17 02:01:51;;;;;;;28.25;3.72;;;4.30;99.90;;;;;;5092068;28;20131;-46
2022/01/17 02:04:17;;;;;;;23.65;2.47;;;4.40;99.90;;;;;;5092724;28;20524;-45
2022/01/17 02:06:43;;;;;;;31.23;3.38;;;4.30;99.90;;;;;;5092595;28;20043;-45
2022/01/17 02:09:09;;;;;;;25.40;1.75;;;4.10;99.90;;;;;;5092320;28;20161;-46
2022/01/17 02:11:37;;;;;;;19.27;2.35;;;4.30;99.90;;;;;;5092684;28;20128;-45
2022/01/17 02:14:03;;;;;;;28.45;3.00;;;4.30;99.90;;;;;;5092386;28;20047;-46
2022/01/17 02:16:30;;;;;;;17.05;2.42;;;4.20;99.90;;;;;;5092460;28;20526;-45
2022/01/17 02:18:56;;;;;;;22.77;1.73;;;4.90;99.90;;;;;;5092134;28;20569;-46
2022/01/17 02:21:45;;;;;;;19.33;1.77;;;3.90;99.90;;;;;;5091868;28;20040;-46
2022/01/17 02:24:14;;;;;;;17.58;2.85;;;4.20;99.90;;;;;;5092277;28;20044;-45
2022/01/17 02:26:40;;;;;;;21.02;1.45;;;4.20;99.90;;;;;;5092219;28;20079;-44
2022/01/17 02:29:06;;;;;;;23.13;1.65;;;3.90;99.90;;;;;;5091988;28;20048;-45
2022/01/17 02:31:33;;;;;;;25.33;2.25;;;4.30;99.90;;;;;;5091748;28;20123;-45
2022/01/17 02:33:58;;;;;;;15.95;1.60;;;4.50;99.90;;;;;;5091671;28;20042;-47
2022/01/17 02:36:24;;;;;;;23.77;2.08;;;4.00;99.90;;;;;;5092039;28;20497;-45
2022/01/17 02:38:50;;;;;;;20.98;1.75;;;4.00;99.90;;;;;;5089584;28;20783;-45
2022/01/17 02:41:17;;;;;;;21.52;2.42;;;3.90;99.90;;;;;;5091742;28;20464;-45
2022/01/17 02:43:45;;;;;;;24.40;2.88;;;3.90;99.90;;;;;;5092355;28;20044;-45
2022/01/17 02:48:40;;;;;;;25.50;3.38;;;3.90;99.90;;;;;;5092003;28;20089;-45
2022/01/17 02:51:07;;;;;;;25.52;2.17;;;4.20;99.90;;;;;;5091381;28;20401;-46
2022/01/17 02:53:33;;;;;;;30.65;2.50;;;4.00;99.90;;;;;;5091616;28;20131;-45
2022/01/17 02:56:02;;;;;;;25.77;3.20;;;3.90;99.90;;;;;;5091617;28;20123;-45
2022/01/17 02:58:32;;;;;;;19.50;2.85;;;3.90;99.90;;;;;;5090188;28;20046;-45
2022/01/17 03:00:58;;;;;;;29.65;3.83;;;3.90;99.90;;;;;;5092105;28;20044;-46
2022/01/17 03:03:27;;;;;;;21.50;3.15;;;4.00;99.90;;;;;;5091086;28;20397;-45
2022/01/17 03:05:55;;;;;;;22.23;3.35;;;3.90;99.90;;;;;;5091495;28;20665;-46
2022/01/17 03:08:22;;;;;;;20.80;1.77;;;3.90;99.90;;;;;;5091360;28;20327;-45
2022/01/17 03:10:49;;;;;;;25.02;1.60;;;3.80;99.90;;;;;;5091778;28;20060;-45
2022/01/17 03:13:17;;;;;;;23.67;1.88;;;3.80;99.90;;;;;;5090479;28;20379;-46
2022/01/17 03:15:45;;;;;;;35.72;3.60;;;4.00;99.90;;;;;;5091231;28;20036;-46
2022/01/17 03:18:11;;;;;;;18.77;1.98;;;4.00;99.90;;;;;;5091257;28;20086;-45
2022/01/17 03:20:39;;;;;;;23.08;1.90;;;4.80;99.90;;;;;;5091404;28;20036;-46
2022/01/17 03:23:07;;;;;;;24.27;2.55;;;3.90;99.90;;;;;;5090863;28;20047;-46
2022/01/17 03:25:33;;;;;;;25.35;2.90;;;4.30;99.90;;;;;;5091141;28;20051;-45
2022/01/17 03:27:59;;;;;;;29.83;2.80;;;4.10;99.90;;;;;;5090923;28;20036;-44
2022/01/17 03:30:26;;;;;;;32.25;2.22;;;4.20;99.90;;;;;;5090912;28;20052;-46
2022/01/17 03:32:52;;;;;;;21.80;2.30;;;4.00;99.90;;;;;;5090728;28;20047;-46
2022/01/17 03:35:18;;;;;;;23.13;2.20;;;4.20;99.90;;;;;;5090786;28;20043;-46
2022/01/17 03:37:44;;;;;;;23.73;2.08;;;4.10;99.90;;;;;;5088609;28;20440;-46
2022/01/17 03:40:11;;;;;;;33.00;3.25;;;4.40;99.90;;;;;;5090681;28;20048;-46
2022/01/17 03:42:37;;;;;;;18.13;1.73;;;4.20;99.90;;;;;;5090678;28;20043;-45
2022/01/17 03:45:07;;;;;;;25.67;2.70;;;4.40;99.90;;;;;;5090878;28;20124;-45
2022/01/17 03:47:34;;;;;;;22.80;2.75;;;4.30;99.90;;;;;;5090924;28;20040;-45
2022/01/17 03:50:00;;;;;;;22.15;1.63;;;4.50;99.90;;;;;;5090844;28;20557;-46
2022/01/17 03:52:26;;;;;;;16.42;2.00;;;4.60;99.90;;;;;;5090487;28;20044;-45
2022/01/17 03:54:52;;;;;;;22.83;2.67;;;4.40;99.90;;;;;;5090710;28;20374;-46
2022/01/17 03:57:17;;;;;;;19.35;1.83;;;5.20;99.90;;;;;;5090588;28;20529;-46
2022/01/17 03:59:43;;;;;;;26.38;1.92;;;4.50;99.90;;;;;;5090542;28;20454;-46
2022/01/17 04:02:09;;;;;;;21.88;2.80;;;4.60;99.90;;;;;;5090458;28;20490;-45
2022/01/17 04:04:34;;;;;;;14.93;1.45;;;4.50;99.90;;;;;;5090996;28;20478;-45
2022/01/17 04:07:00;;;;;;;17.35;2.20;;;4.50;99.90;;;;;;5090862;28;20040;-44
2022/01/17 04:09:26;;;;;;;17.58;1.55;;;4.50;99.90;;;;;;5090225;28;20051;-46
2022/01/17 04:11:51;;;;;;;25.55;1.60;;;4.80;99.90;;;;;;5090588;28;20051;-45
2022/01/17 04:14:17;;;;;;;17.83;3.15;;;4.50;99.90;;;;;;5090324;28;20119;-47
2022/01/17 04:16:43;;;;;;;26.75;1.92;;;4.60;99.90;;;;;;5089443;28;20051;-46
2022/01/17 04:19:12;;;;;;;24.05;2.45;;;4.40;99.90;;;;;;5090555;28;20500;-46
2022/01/17 04:21:38;;;;;;;18.55;1.95;;;4.20;99.90;;;;;;5090271;28;20048;-45
2022/01/17 04:24:04;;;;;;;15.80;1.48;;;4.40;99.90;;;;;;5090379;28;20044;-45
2022/01/17 04:26:29;;;;;;;17.25;2.08;;;4.60;99.90;;;;;;5093848;28;20081;-46
2022/01/17 04:28:55;;;;;;;17.92;1.98;;;4.20;99.90;;;;;;5094241;28;20043;-45
2022/01/17 04:31:21;;;;;;;22.20;1.75;;;4.70;99.90;;;;;;5094121;28;20047;-45
2022/01/17 04:33:47;;;;;;;28.27;1.77;;;4.20;99.90;;;;;;5094588;28;20040;-46
2022/01/17 04:36:13;;;;;;;17.42;1.88;;;4.10;99.90;;;;;;5094521;28;20036;-46
2022/01/17 04:38:39;;;;;;;18.02;1.27;;;4.20;99.90;;;;;;5091843;28;20044;-46
2022/01/17 04:41:13;;;;;;;15.93;1.08;;;4.20;99.90;;;;;;5094271;28;20048;-45
2022/01/17 04:46:06;;;;;;;16.67;1.50;;;4.30;99.90;;;;;;5094437;28;20485;-46
2022/01/17 04:48:33;;;;;;;26.75;3.65;;;4.30;99.90;;;;;;5093995;28;20040;-45
2022/01/17 04:50:59;;;;;;;19.30;2.47;;;4.50;99.90;;;;;;5094077;28;20068;-46
2022/01/17 04:53:26;;;;;;;14.23;1.60;;;4.50;99.90;;;;;;5093482;28;20520;-45
2022/01/17 04:55:52;;;;;;;22.15;1.70;;;4.60;99.90;;;;;;5093767;28;20068;-45
2022/01/17 04:58:17;;;;;;;18.90;1.67;;;4.60;99.90;;;;;;5094307;28;20071;-45
2022/01/17 05:00:47;;;;;;;28.08;1.88;;;4.70;99.90;;;;;;5093731;28;20050;-45
2022/01/17 05:03:18;;;;;;;23.25;1.90;;;4.60;99.90;;;;;;5092507;28;20550;-45
2022/01/17 05:05:44;;;;;;;18.17;1.80;;;5.00;99.90;;;;;;5093785;28;20039;-45
2022/01/17 05:08:10;;;;;;;20.63;2.17;;;4.70;99.90;;;;;;5093555;28;20040;-45
2022/01/17 05:10:36;;;;;;;22.88;1.45;;;4.80;99.90;;;;;;5093681;28;20557;-47
2022/01/17 05:13:02;;;;;;;18.35;2.20;;;4.80;99.90;;;;;;5094339;28;20127;-45
2022/01/17 05:20:39;;;;;;;26.60;2.20;;;5.10;99.90;;;;;;5093179;28;20048;-45
2022/01/17 05:23:05;;;;;;;17.20;1.58;;;5.10;99.90;;;;;;5093370;28;20048;-47
2022/01/17 05:25:30;;;;;;;17.42;2.33;;;5.10;99.90;;;;;;5093356;28;20036;-46
2022/01/17 05:27:56;;;;;;;21.58;1.85;;;5.10;99.90;;;;;;5093350;28;20052;-46
2022/01/17 05:30:23;;;;;;;22.05;2.22;;;5.20;99.90;;;;;;5093074;28;20040;-46
2022/01/17 05:32:50;;;;;;;24.90;2.60;;;5.20;99.90;;;;;;5091991;28;20119;-44
2022/01/17 05:35:16;;;;;;;23.98;2.08;;;5.60;99.90;;;;;;5093125;28;20044;-47
2022/01/17 05:37:42;;;;;;;14.85;1.58;;;5.80;99.90;;;;;;5090029;28;20043;-45
2022/01/17 05:40:11;;;;;;;22.90;2.78;;;5.30;99.90;;;;;;5093152;28;20033;-46
2022/01/17 05:42:37;;;;;;;26.00;2.03;;;5.10;99.90;;;;;;5093036;28;20043;-45
2022/01/17 05:45:04;;;;;;;22.73;2.30;;;5.30;99.90;;;;;;5093129;28;20094;-45
2022/01/17 05:47:30;;;;;;;17.98;1.80;;;5.00;99.90;;;;;;5092675;28;20076;-45
2022/01/17 05:49:57;;;;;;;20.25;2.65;;;5.40;99.90;;;;;;5092874;28;20040;-47
2022/01/17 05:52:23;;;;;;;25.17;3.45;;;5.40;99.90;;;;;;5092784;28;20059;-45
2022/01/17 05:54:49;;;;;;;23.35;3.00;;;5.40;99.90;;;;;;5092483;28;20044;-46
2022/01/17 05:57:16;;;;;;;17.50;2.63;;;6.20;99.90;;;;;;5092848;28;20133;-46
2022/01/17 05:59:43;;;;;;;17.30;2.75;;;5.50;99.90;;;;;;5092259;28;20052;-46
2022/01/17 06:02:08;;;;;;;17.15;2.03;;;5.40;99.90;;;;;;5092293;28;20040;-47
2022/01/17 06:04:35;;;;;;;23.00;2.70;;;5.60;99.90;;;;;;5092134;28;20117;-44
2022/01/17 06:07:01;;;;;;;21.98;3.63;;;5.50;99.90;;;;;;5092448;28;20541;-45
2022/01/17 06:09:27;;;;;;;13.63;2.47;;;5.60;99.90;;;;;;5092189;28;20036;-46
2022/01/17 06:11:52;;;;;;;17.98;3.20;;;6.30;99.90;;;;;;5092405;28;20426;-47
2022/01/17 06:14:18;;;;;;;24.52;3.85;;;5.70;99.90;;;;;;5092376;28;20165;-45
2022/01/17 06:16:45;;;;;;;19.17;2.05;;;5.60;99.90;;;;;;5092134;28;20044;-45
2022/01/17 06:19:11;;;;;;;21.30;3.75;;;5.80;99.90;;;;;;5092138;28;20051;-45
2022/01/17 06:21:37;;;;;;;25.55;4.22;;;5.80;99.90;;;;;;5092139;28;20066;-44
2022/01/17 06:24:05;;;;;;;26.95;3.17;;;5.70;99.90;;;;;;5092171;28;20123;-45
2022/01/17 06:26:39;;;;;;;23.55;3.30;;;5.50;99.90;;;;;;5092163;28;20044;-45
2022/01/17 06:29:06;;;;;;;27.52;3.80;;;5.50;99.90;;;;;;5092195;28;20047;-44
2022/01/17 06:31:32;;;;;;;24.05;3.20;;;5.70;99.90;;;;;;5091792;28;20123;-45
2022/01/17 06:33:58;;;;;;;30.25;4.72;;;5.70;99.90;;;;;;5091973;28;20115;-44
2022/01/17 06:36:24;;;;;;;19.70;3.67;;;5.80;99.90;;;;;;5092048;28;20389;-46
2022/01/17 06:38:49;;;;;;;20.85;3.00;;;5.90;99.90;;;;;;5091291;28;20050;-45
2022/01/17 06:41:17;;;;;;;28.98;4.40;;;5.80;99.90;;;;;;5091948;28;20387;-45
2022/01/17 06:43:44;;;;;;;29.30;4.45;;;5.50;99.90;;;;;;5091906;28;20036;-45
2022/01/17 06:46:10;;;;;;;25.45;3.67;;;5.90;99.90;;;;;;5091765;28;20102;-45
2022/01/17 06:48:35;;;;;;;31.25;4.32;;;5.60;99.90;;;;;;5091266;28;20044;-46
2022/01/17 06:51:01;;;;;;;24.98;3.50;;;5.70;99.90;;;;;;5091402;28;20048;-45
2022/01/17 06:53:28;;;;;;;31.88;4.15;;;5.80;99.90;;;;;;5091864;28;20048;-46
2022/01/17 06:55:54;;;;;;;36.22;5.72;;;5.80;99.90;;;;;;5091459;28;20044;-45
2022/01/17 06:58:20;;;;;;;32.47;4.90;;;5.70;99.90;;;;;;5091882;28;20090;-46
2022/01/17 07:00:46;;;;;;;25.10;4.05;;;5.60;99.90;;;;;;5091166;28;20116;-46
2022/01/17 07:03:12;;;;;;;28.27;4.45;;;5.80;99.90;;;;;;5091470;28;20044;-45
2022/01/17 07:05:38;;;;;;;30.73;4.28;;;5.80;99.90;;;;;;5091162;28;20051;-46
2022/01/17 07:08:04;;;;;;;29.05;3.75;;;5.70;99.90;;;;;;5091195;28;20036;-45
2022/01/17 07:10:30;;;;;;;32.58;4.18;;;5.80;99.90;;;;;;5091437;28;20060;-45
2022/01/17 07:12:56;;;;;;;35.00;5.43;;;6.30;99.90;;;;;;5091275;28;20047;-45
2022/01/17 07:15:22;;;;;;;36.22;4.60;;;5.60;99.90;;;;;;5091171;28;20051;-45
2022/01/17 07:17:48;;;;;;;22.85;3.28;;;5.80;99.90;;;;;;5091071;28;20512;-46
2022/01/17 07:20:14;;;;;;;28.83;5.53;;;5.80;99.90;;;;;;5091064;28;20048;-45
2022/01/17 07:22:40;;;;;;;37.75;5.00;;;6.30;99.90;;;;;;5091168;28;20040;-45
2022/01/17 07:25:06;;;;;;;28.67;4.72;;;5.40;99.90;;;;;;5090857;28;20040;-45
2022/01/17 07:27:32;;;;;;;39.95;5.93;;;5.50;99.90;;;;;;5091158;28;20043;-45
2022/01/17 07:29:58;;;;;;;25.33;4.32;;;5.70;99.90;;;;;;5090926;28;20036;-47
2022/01/17 07:32:25;;;;;;;34.15;4.97;;;5.80;99.90;;;;;;5090947;28;20089;-45
2022/01/17 07:34:52;;;;;;;21.30;3.13;;;5.80;99.90;;;;;;5091011;28;20051;-46
2022/01/17 07:37:18;;;;;;;36.38;5.03;;;6.20;99.90;;;;;;5089701;28;20048;-45
2022/01/17 07:39:44;;;;;;;36.28;4.38;;;5.80;99.90;;;;;;5090087;28;20405;-46
2022/01/17 07:42:10;;;;;;;26.15;3.42;;;6.10;99.90;;;;;;5090796;28;20040;-46
2022/01/17 07:44:37;;;;;;;26.38;4.03;;;5.80;99.90;;;;;;5090937;28;20044;-45
2022/01/17 07:47:05;;;;;;;30.50;3.97;;;6.10;99.90;;;;;;5090258;28;20044;-46
2022/01/17 07:49:31;;;;;;;33.67;4.95;;;5.80;99.90;;;;;;5090548;28;20565;-44
2022/01/17 07:52:03;;;;;;;35.30;4.57;;;6.00;99.90;;;;;;5090407;28;20093;-46
2022/01/17 07:54:31;;;;;;;41.58;6.60;;;6.10;99.90;;;;;;5090577;28;20072;-45
2022/01/17 07:56:58;;;;;;;38.35;5.60;;;6.00;99.90;;;;;;5090319;28;20394;-46
2022/01/17 07:59:24;;;;;;;37.17;4.95;;;6.40;99.90;;;;;;5090177;28;20453;-46
2022/01/17 08:01:50;;;;;;;42.00;5.30;;;6.30;99.90;;;;;;5090351;28;20075;-46
2022/01/17 08:04:16;;;;;;;34.40;3.58;;;6.20;99.90;;;;;;5090251;28;20389;-46
2022/01/17 08:06:42;;;;;;;39.20;5.60;;;6.10;99.90;;;;;;5090516;28;20115;-45
2022/01/17 08:09:22;;;;;;;45.65;5.75;;;6.40;99.90;;;;;;5090279;28;20474;-47
2022/01/17 08:11:49;;;;;;;40.90;5.07;;;6.40;99.90;;;;;;5088735;28;20075;-45
2022/01/17 08:14:15;;;;;;;34.70;4.82;;;7.00;99.90;;;;;;5090390;28;20054;-45
2022/01/17 08:16:41;;;;;;;38.47;6.20;;;6.50;99.90;;;;;;5089154;28;20405;-45
2022/01/17 08:19:07;;;;;;;32.63;3.53;;;6.70;99.90;;;;;;5090143;28;20097;-46
2022/01/17 08:21:32;;;;;;;46.58;5.15;;;6.10;99.90;;;;;;5090176;28;20169;-45
2022/01/17 08:24:00;;;;;;;36.38;3.38;;;6.10;99.90;;;;;;5090401;28;20047;-44
2022/01/17 08:26:26;;;;;;;35.90;5.43;;;6.40;99.90;;;;;;5089947;28;20055;-47
2022/01/17 08:28:52;;;;;;;49.80;4.10;;;6.30;99.90;;;;;;5089972;28;20047;-44
2022/01/17 08:31:18;;;;;;;39.17;4.90;;;6.20;99.90;;;;;;5078349;28;20044;-47
2022/01/17 08:33:44;;;;;;;43.67;4.85;;;6.30;99.90;;;;;;5079678;28;20471;-45
2022/01/17 08:36:11;;;;;;;41.47;5.47;;;6.40;99.90;;;;;;5077088;28;20048;-45
2022/01/17 08:38:38;;;;;;;37.20;3.78;;;6.30;99.90;;;;;;5080947;28;20421;-45
2022/01/17 08:41:04;;;;;;;47.13;5.43;;;6.50;99.90;;;;;;5078545;28;20043;-46
2022/01/17 08:43:30;;;;;;;32.90;4.40;;;6.40;99.90;;;;;;5080902;28;20032;-45
2022/01/17 08:45:56;;;;;;;35.60;4.22;;;7.10;99.90;;;;;;5079329;28;20039;-44
2022/01/17 08:48:22;;;;;;;32.85;4.13;;;6.50;99.90;;;;;;5079226;28;20075;-46
2022/01/17 08:50:48;;;;;;;40.83;4.78;;;6.40;99.90;;;;;;5070954;28;20082;-45
2022/01/17 08:53:15;;;;;;;35.15;4.00;;;6.50;99.90;;;;;;5068395;28;20488;-45
2022/01/17 08:55:46;;;;;;;27.30;4.03;;;6.30;99.90;;;;;;5070337;28;20072;-45
2022/01/17 08:58:13;;;;;;;43.20;5.07;;;7.20;99.90;;;;;;5070133;28;20041;-46
2022/01/17 09:00:40;;;;;;;46.33;5.72;;;6.70;99.90;;;;;;5069111;28;20448;-46
2022/01/17 09:03:05;;;;;;;46.15;4.55;;;6.50;99.90;;;;;;5079392;28;20072;-45
2022/01/17 09:05:33;;;;;;;34.00;4.45;;;6.80;99.90;;;;;;5079868;28;20094;-45
2022/01/17 09:07:59;;;;;;;38.28;4.65;;;7.00;99.90;;;;;;5079877;28;20543;-46
2022/01/17 09:10:26;;;;;;;34.85;4.93;;;6.60;99.90;;;;;;5078512;28;20128;-46
2022/01/17 09:12:53;;;;;;;48.70;5.32;;;6.80;99.90;;;;;;5077888;28;20047;-49
2022/01/17 09:15:19;;;;;;;41.17;5.40;;;6.90;99.90;;;;;;5084230;28;20044;-45
2022/01/17 09:17:45;;;;;;;47.13;5.63;;;7.00;99.90;;;;;;5088574;28;20409;-46
2022/01/17 09:20:12;;;;;;;40.88;4.82;;;7.20;99.90;;;;;;5087914;28;20036;-44
2022/01/17 09:22:38;;;;;;;46.75;5.22;;;6.70;99.90;;;;;;5087144;28;20485;-46
2022/01/17 09:25:08;;;;;;;36.75;4.55;;;6.80;99.90;;;;;;5082979;28;20039;-45
2022/01/17 09:27:35;;;;;;;33.00;4.10;;;7.20;99.90;;;;;;5082535;28;20036;-46
2022/01/17 09:30:05;;;;;;;49.53;5.95;;;6.90;99.90;;;;;;5082377;28;20075;-44
2022/01/17 09:32:31;;;;;;;33.53;4.78;;;7.00;99.90;;;;;;5083367;28;20046;-45
2022/01/17 09:34:57;;;;;;;36.13;4.90;;;7.50;99.90;;;;;;5078297;28;20405;-48
2022/01/17 09:37:22;;;;;;;42.33;4.20;;;7.80;99.90;;;;;;5081821;28;20050;-46
2022/01/17 09:39:48;;;;;;;40.80;4.88;;;8.10;99.90;;;;;;5083466;28;20044;-45
2022/01/17 09:42:14;;;;;;;40.50;4.20;;;8.00;99.90;;;;;;5080772;28;20032;-47
2022/01/17 09:44:40;;;;;;;42.78;5.53;;;7.60;99.90;;;;;;5087429;28;20044;-46
2022/01/17 09:47:08;;;;;;;41.42;5.03;;;7.30;99.90;;;;;;5093108;28;20492;-45
2022/01/17 09:49:51;;;;;;;37.00;5.05;;;7.60;99.90;;;;;;5093193;28;20462;-45
2022/01/17 09:52:36;;;;;;;32.55;4.65;;;8.50;99.90;;;;;;5093020;28;20101;-45
2022/01/17 09:55:22;;;;;;;31.42;4.97;;;8.70;99.90;;;;;;5092978;28;20051;-45
2022/01/17 09:58:00;;;;;;;40.45;5.68;;;7.80;99.90;;;;;;5092339;28;20040;-58
2022/01/17 10:00:28;;;;;;;44.53;5.65;;;8.10;99.90;;;;;;5081104;28;20075;-58
2022/01/17 10:02:56;;;;;;;38.60;5.82;;;7.90;99.90;;;;;;5071952;28;20036;-45
2022/01/17 10:05:24;;;;;;;53.90;6.30;;;7.70;99.90;;;;;;5069114;28;20039;-42
2022/01/17 10:08:04;;;;;;;42.15;7.20;;;7.90;99.90;;;;;;5074363;28;20059;-42
2022/01/17 10:10:57;;;;;;;50.50;7.63;;;8.00;99.90;;;;;;5072233;28;20068;-42
2022/01/17 10:13:30;;;;;;;43.30;5.95;;;8.10;99.90;;;;;;5071468;28;20083;-39
2022/01/17 10:16:09;;;;;;;42.72;5.97;;;8.00;99.90;;;;;;5071864;28;20028;-40
2022/01/17 10:18:49;;;;;;;41.85;6.07;;;8.80;99.90;;;;;;5070289;28;20393;-40
2022/01/17 10:21:44;;;;;;;41.90;4.80;;;8.20;99.90;;;;;;5071752;28;20051;-41
2022/01/17 10:35:33;;;;;;;45.03;6.40;;;8.80;99.90;;;;;;5072832;28;20502;-45
2022/01/17 10:37:58;;;;;;;44.38;7.32;;;8.50;99.90;;;;;;5073250;28;20040;-42
2022/01/17 10:40:25;;;;;;;43.70;6.88;;;8.50;99.90;;;;;;5072358;28;20123;-44
2022/01/17 10:42:52;;;;;;;61.40;7.50;;;9.00;99.90;;;;;;5074021;28;20043;-42
2022/01/17 10:45:24;;;;;;;34.97;5.45;;;8.60;99.90;;;;;;5073399;28;20043;-44
2022/01/17 10:47:51;;;;;;;;;;;8.60;99.90;;;;;;5071614;28;20103;-41
2022/01/17 10:50:36;;;;;;;54.35;6.85;;;8.60;99.90;;;;;;5070158;28;19965;-38
2022/01/17 10:53:08;;;;;;;47.92;7.28;;;9.20;99.90;;;;;;5070657;28;20033;-39
2022/01/17 10:55:40;;;;;;;50.40;7.30;;;9.00;99.90;;;;;;5072980;28;20035;-40
2022/01/17 10:58:11;;;;;;;54.22;7.55;;;9.00;99.90;;;;;;5073032;28;20040;-39
2022/01/17 11:00:43;;;;;;;42.87;6.40;;;9.00;99.90;;;;;;5075213;28;20043;-43
2022/01/17 11:03:12;;;;;;;40.50;5.45;;;8.90;99.90;;;;;;5073542;28;20402;-43
2022/01/17 11:05:40;;;;;;;40.92;4.88;;;9.10;99.90;;;;;;5072334;28;20039;-47
2022/01/17 11:08:08;;;;;;;38.88;5.78;;;8.90;99.90;;;;;;5075278;28;20045;-47
2022/01/17 11:10:36;;;;;;;43.50;7.15;;;9.30;99.90;;;;;;5071978;28;20052;-39
2022/01/17 11:13:07;;;;;;;39.65;5.57;;;9.00;99.90;;;;;;5072331;28;20048;-40
2022/01/17 11:15:34;;;;;;;44.35;5.55;;;9.60;99.90;;;;;;5072851;28;20078;-42
2022/01/17 11:18:11;;;;;;;48.20;6.35;;;9.00;99.90;;;;;;5073341;28;20474;-39
2022/01/17 11:20:36;;;;;;;53.47;7.22;;;9.30;99.90;;;;;;5071231;28;20132;-42
2022/01/17 11:23:03;;;;;;;43.53;5.88;;;9.00;99.90;;;;;;5041251;28;20048;-39
2022/01/17 11:25:32;;;;;;;35.42;5.50;;;9.10;99.90;;;;;;5068589;28;20538;-42
2022/01/17 11:27:59;;;;;;;38.35;6.40;;;9.10;99.90;;;;;;5058986;28;20501;-40
2022/01/17 11:30:26;;;;;;;45.92;6.38;;;9.00;99.90;;;;;;5069954;28;20036;-53
2022/01/17 11:32:55;;;;;;;47.30;5.85;;;9.10;99.90;;;;;;5057389;28;20036;-42
2022/01/17 11:35:21;;;;;;;38.60;5.47;;;9.30;99.90;;;;;;5067056;28;20040;-52
2022/01/17 11:37:52;;;;;;;38.58;5.35;;;9.40;99.90;;;;;;5070464;28;20032;-56
2022/01/17 11:40:27;;;;;;;38.40;5.05;;;9.00;99.90;;;;;;5068615;28;20040;-58
2022/01/17 11:42:56;;;;;;;33.55;7.28;;;9.00;99.90;;;;;;5070020;28;20139;-58
2022/01/17 11:45:21;;;;;;;35.10;4.72;;;8.90;99.90;;;;;;5068999;28;20039;-38
2022/01/17 11:47:54;;;;;;;67.35;9.30;;;8.80;99.90;;;;;;5068971;28;20028;-39
2022/01/17 11:50:29;;;;;;;37.47;5.95;;;8.80;99.90;;;;;;5068468;28;20099;-41
2022/01/17 11:53:16;;;;;;;47.42;5.68;;;8.70;99.90;;;;;;5068006;28;20036;-48
2022/01/17 11:55:46;;;;;;;41.63;5.50;;;9.00;99.90;;;;;;5070543;28;20032;-42
2022/01/17 11:58:29;;;;;;;53.65;7.63;;;9.50;99.90;;;;;;5069862;28;20044;-55
2022/01/17 12:01:01;;;;;;;40.53;6.20;;;8.80;99.90;;;;;;5065275;28;20386;-48
2022/01/17 12:03:45;;;;;;;48.33;7.88;;;8.70;99.90;;;;;;5065637;28;20101;-57
2022/01/17 12:06:23;;;;;;;40.63;6.20;;;8.90;99.90;;;;;;5068621;28;20485;-59
2022/01/17 12:08:50;;;;;;;51.38;6.60;;;8.90;99.90;;;;;;5066045;28;20306;-46
2022/01/17 12:11:31;;;;;;;41.72;6.57;;;8.90;99.90;;;;;;5069142;28;20064;-40
2022/01/17 12:14:17;;;;;;;43.03;6.93;;;9.00;99.90;;;;;;5078142;28;20044;-42
2022/01/17 12:16:42;;;;;;;40.83;7.05;;;9.00;99.90;;;;;;5069285;28;20040;-44
2022/01/17 12:19:09;;;;;;;34.45;6.65;;;9.50;99.90;;;;;;5068337;28;20110;-43
2022/01/17 12:21:57;;;;;;;35.15;4.80;;;9.10;99.90;;;;;;5056452;28;20132;-44
2022/01/17 12:24:29;;;;;;;34.97;4.53;;;9.20;99.90;;;;;;5060410;28;20036;-40
2022/01/17 12:26:54;;;;;;;29.30;5.75;;;8.80;99.90;;;;;;5066149;28;20047;-59
2022/01/17 12:29:37;;;;;;;36.03;5.63;;;8.60;99.90;;;;;;5071255;28;20478;-51
2022/01/17 12:32:05;;;;;;;33.83;5.10;;;9.50;99.90;;;;;;5064726;28;20406;-56
2022/01/17 12:34:40;;;;;;;40.75;5.32;;;8.40;99.90;;;;;;5063214;28;20032;-51
2022/01/17 12:37:36;;;;;;;44.08;6.15;;;8.40;99.90;;;;;;5069251;28;20032;-48
2022/01/17 12:40:10;;;;;;;42.83;6.72;;;8.60;99.90;;;;;;5065849;28;20072;-44
2022/01/17 12:43:00;;;;;;;37.38;5.45;;;8.60;99.90;;;;;;5071045;28;20079;-51
2022/01/17 12:45:37;;;;;;;39.35;5.25;;;8.70;99.90;;;;;;5070071;28;20032;-52
2022/01/17 12:48:30;;;;;;;43.85;6.20;;;8.70;99.90;;;;;;5072593;28;20431;-48
2022/01/17 12:50:57;;;;;;;43.88;7.03;;;8.70;99.90;;;;;;5062269;28;20048;-49
2022/01/17 12:53:26;;;;;;;66.30;5.97;;;9.10;99.90;;;;;;5070201;28;20033;-67
2022/01/17 12:55:55;;;;;;;43.92;6.47;;;9.00;99.90;;;;;;5072185;28;20515;-54
2022/01/17 12:58:25;;;;;;;35.15;5.93;;;8.70;99.90;;;;;;5069284;28;20044;-58
2022/01/17 13:00:58;;;;;;;41.58;5.60;;;8.70;99.90;;;;;;5064616;28;20040;-45
2022/01/17 13:03:25;;;;;;;31.55;4.38;;;8.80;99.90;;;;;;5066513;28;20068;-57
2022/01/17 13:05:53;;;;;;;34.97;5.47;;;10.30;99.90;;;;;;5072800;28;20036;-46
2022/01/17 13:08:20;;;;;;;39.95;6.00;;;8.80;99.90;;;;;;5072710;28;20074;-59
2022/01/17 13:10:46;;;;;;;34.45;6.05;;;9.10;99.90;;;;;;5059482;28;20494;-57
2022/01/17 13:13:16;;;;;;;37.20;5.20;;;8.80;99.90;;;;;;5074341;28;20045;-58
2022/01/17 13:16:03;;;;;;;40.92;5.22;;;8.80;99.90;;;;;;5073141;28;20090;-62
2022/01/17 13:18:32;;;;;;;30.77;4.95;;;8.80;99.90;;;;;;5075684;28;20336;-56
2022/01/17 13:21:00;;;;;;;34.05;4.03;;;8.90;99.90;;;;;;5072497;28;20093;-46
2022/01/17 13:23:45;;;;;;;28.83;3.92;;;8.80;99.90;;;;;;5072719;28;20036;-52
2022/01/17 13:26:18;;;;;;;27.52;3.72;;;8.80;99.90;;;;;;5073221;28;20028;-46